sensor_id;sensor_type;location;lat;lon;timestamp;temperature;humidity
56298;DHT22;42208;6.376;-10.782;2023-01-23T00:01:34;27.10;99.90
56298;DHT22;42208;6.376;-10.782;2023-01-23T00:04:03;27.00;99.90
56298;DHT22;42208;6.376;-10.782;2023-01-23T00:06:32;27.00;99.90
56298;DHT22;42208;6.376;-10.782;2023-01-23T00:09:01;27.10;99.90
56298;DHT22;42208;6.376;-10.782;2023-01-23T00:11:30;27.00;99.90
56298;DHT22;42208;6.376;-10.782;2023-01-23T00:14:01;27.00;99.90
56298;DHT22;42208;6.376;-10.782;2023-01-23T00:16:31;27.00;99.90
56298;DHT22;42208;6.376;-10.782;2023-01-23T00:18:59;27.00;99.90
56298;DHT22;42208;6.376;-10.782;2023-01-23T00:21:28;27.00;99.90
56298;DHT22;42208;6.376;-10.782;2023-01-23T00:23:58;27.00;99.90
56298;DHT22;42208;6.376;-10.782;2023-01-23T00:26:28;27.00;99.90
56298;DHT22;42208;6.376;-10.782;2023-01-23T00:28:57;27.00;99.90
56298;DHT22;42208;6.376;-10.782;2023-01-23T00:31:30;26.90;99.90
56298;DHT22;42208;6.376;-10.782;2023-01-23T00:34:02;27.00;99.90
56298;DHT22;42208;6.376;-10.782;2023-01-23T00:36:33;27.00;99.90
56298;DHT22;42208;6.376;-10.782;2023-01-23T00:39:04;27.00;99.90
56298;DHT22;42208;6.376;-10.782;2023-01-23T00:41:32;27.00;99.90
56298;DHT22;42208;6.376;-10.782;2023-01-23T00:44:02;26.90;99.90
56298;DHT22;42208;6.376;-10.782;2023-01-23T00:46:30;27.00;99.90
56298;DHT22;42208;6.376;-10.782;2023-01-23T00:48:59;27.00;99.90
56298;DHT22;42208;6.376;-10.782;2023-01-23T00:51:27;27.00;99.90
56298;DHT22;42208;6.376;-10.782;2023-01-23T00:53:55;26.90;99.90
56298;DHT22;42208;6.376;-10.782;2023-01-23T00:56:24;26.90;99.90
56298;DHT22;42208;6.376;-10.782;2023-01-23T00:58:52;26.90;99.90
56298;DHT22;42208;6.376;-10.782;2023-01-23T01:01:21;26.90;99.90
56298;DHT22;42208;6.376;-10.782;2023-01-23T01:03:49;26.90;99.90
56298;DHT22;42208;6.376;-10.782;2023-01-23T01:06:17;26.90;99.90
56298;DHT22;42208;6.376;-10.782;2023-01-23T01:08:46;26.90;99.90
56298;DHT22;42208;6.376;-10.782;2023-01-23T01:11:15;26.90;99.90
56298;DHT22;42208;6.376;-10.782;2023-01-23T01:13:44;26.90;99.90
56298;DHT22;42208;6.376;-10.782;2023-01-23T01:16:12;26.90;99.90
56298;DHT22;42208;6.376;-10.782;2023-01-23T01:18:41;26.90;99.90
56298;DHT22;42208;6.376;-10.782;2023-01-23T01:21:13;26.90;99.90
56298;DHT22;42208;6.376;-10.782;2023-01-23T01:23:41;26.90;99.90
56298;DHT22;42208;6.376;-10.782;2023-01-23T01:26:10;26.90;99.90
56298;DHT22;42208;6.376;-10.782;2023-01-23T01:28:39;26.90;99.90
56298;DHT22;42208;6.376;-10.782;2023-01-23T01:31:13;26.90;99.90
56298;DHT22;42208;6.376;-10.782;2023-01-23T01:33:43;26.90;99.90
56298;DHT22;42208;6.376;-10.782;2023-01-23T01:36:15;26.90;99.90
56298;DHT22;42208;6.376;-10.782;2023-01-23T01:38:46;27.00;99.90
56298;DHT22;42208;6.376;-10.782;2023-01-23T01:41:15;26.90;99.90
56298;DHT22;42208;6.376;-10.782;2023-01-23T01:43:43;26.90;99.90
56298;DHT22;42208;6.376;-10.782;2023-01-23T01:49:12;27.00;99.90
56298;DHT22;42208;6.376;-10.782;2023-01-23T01:51:57;27.00;99.90
56298;DHT22;42208;6.376;-10.782;2023-01-23T01:54:50;27.00;99.90
56298;DHT22;42208;6.376;-10.782;2023-01-23T01:57:26;27.00;99.90
56298;DHT22;42208;6.376;-10.782;2023-01-23T02:00:12;26.90;99.90
56298;DHT22;42208;6.376;-10.782;2023-01-23T02:05:16;27.00;99.90
56298;DHT22;42208;6.376;-10.782;2023-01-23T02:08:05;27.00;99.90
56298;DHT22;42208;6.376;-10.782;2023-01-23T02:10:34;26.90;99.90
56298;DHT22;42208;6.376;-10.782;2023-01-23T02:13:30;27.00;99.90
56298;DHT22;42208;6.376;-10.782;2023-01-23T02:16:22;26.90;99.90
56298;DHT22;42208;6.376;-10.782;2023-01-23T02:18:50;27.00;99.90
56298;DHT22;42208;6.376;-10.782;2023-01-23T02:21:22;26.90;99.90
56298;DHT22;42208;6.376;-10.782;2023-01-23T02:24:13;26.90;99.90
56298;DHT22;42208;6.376;-10.782;2023-01-23T02:26:45;26.90;99.90
56298;DHT22;42208;6.376;-10.782;2023-01-23T02:29:15;26.90;99.90
56298;DHT22;42208;6.376;-10.782;2023-01-23T02:31:47;26.90;99.90
56298;DHT22;42208;6.376;-10.782;2023-01-23T02:34:16;26.90;99.90
56298;DHT22;42208;6.376;-10.782;2023-01-23T02:36:47;26.90;99.90
56298;DHT22;42208;6.376;-10.782;2023-01-23T02:39:19;26.80;99.90
56298;DHT22;42208;6.376;-10.782;2023-01-23T02:41:52;26.90;99.90
56298;DHT22;42208;6.376;-10.782;2023-01-23T02:44:37;26.90;99.90
56298;DHT22;42208;6.376;-10.782;2023-01-23T02:47:07;26.80;99.90
56298;DHT22;42208;6.376;-10.782;2023-01-23T02:49:37;26.80;99.90
56298;DHT22;42208;6.376;-10.782;2023-01-23T02:52:08;26.80;99.90
56298;DHT22;42208;6.376;-10.782;2023-01-23T02:54:36;26.90;99.90
56298;DHT22;42208;6.376;-10.782;2023-01-23T02:57:05;26.80;99.90
56298;DHT22;42208;6.376;-10.782;2023-01-23T02:59:34;26.90;99.90
56298;DHT22;42208;6.376;-10.782;2023-01-23T03:02:04;26.80;99.90
56298;DHT22;42208;6.376;-10.782;2023-01-23T03:04:32;26.80;99.90
56298;DHT22;42208;6.376;-10.782;2023-01-23T03:07:00;26.80;99.90
56298;DHT22;42208;6.376;-10.782;2023-01-23T03:09:29;26.70;99.90
56298;DHT22;42208;6.376;-10.782;2023-01-23T03:11:57;26.80;99.90
56298;DHT22;42208;6.376;-10.782;2023-01-23T03:14:26;26.80;99.90
56298;DHT22;42208;6.376;-10.782;2023-01-23T03:16:54;26.80;99.90
56298;DHT22;42208;6.376;-10.782;2023-01-23T03:19:28;26.70;99.90
56298;DHT22;42208;6.376;-10.782;2023-01-23T03:21:58;26.70;99.90
56298;DHT22;42208;6.376;-10.782;2023-01-23T03:24:26;26.70;99.90
56298;DHT22;42208;6.376;-10.782;2023-01-23T03:26:54;26.80;99.90
56298;DHT22;42208;6.376;-10.782;2023-01-23T03:29:25;26.70;99.90
56298;DHT22;42208;6.376;-10.782;2023-01-23T03:31:53;26.60;99.90
56298;DHT22;42208;6.376;-10.782;2023-01-23T03:34:22;26.70;99.90
56298;DHT22;42208;6.376;-10.782;2023-01-23T03:36:50;26.70;99.90
56298;DHT22;42208;6.376;-10.782;2023-01-23T03:39:19;26.70;99.90
56298;DHT22;42208;6.376;-10.782;2023-01-23T03:41:47;26.70;99.90
56298;DHT22;42208;6.376;-10.782;2023-01-23T03:44:18;26.70;99.90
56298;DHT22;42208;6.376;-10.782;2023-01-23T03:46:49;26.70;99.90
56298;DHT22;42208;6.376;-10.782;2023-01-23T03:49:19;26.80;99.90
56298;DHT22;42208;6.376;-10.782;2023-01-23T03:51:54;26.80;99.90
56298;DHT22;42208;6.376;-10.782;2023-01-23T03:54:23;26.80;99.90
56298;DHT22;42208;6.376;-10.782;2023-01-23T03:56:52;26.80;99.90
56298;DHT22;42208;6.376;-10.782;2023-01-23T03:59:49;26.70;99.90
56298;DHT22;42208;6.376;-10.782;2023-01-23T04:02:20;26.70;99.90
56298;DHT22;42208;6.376;-10.782;2023-01-23T04:04:48;26.70;99.90
56298;DHT22;42208;6.376;-10.782;2023-01-23T04:07:17;26.70;99.90
56298;DHT22;42208;6.376;-10.782;2023-01-23T04:13:13;26.70;99.90
56298;DHT22;42208;6.376;-10.782;2023-01-23T04:15:42;26.70;99.90
56298;DHT22;42208;6.376;-10.782;2023-01-23T04:18:10;26.60;99.90
56298;DHT22;42208;6.376;-10.782;2023-01-23T04:20:39;26.60;99.90
56298;DHT22;42208;6.376;-10.782;2023-01-23T04:23:07;26.60;99.90
56298;DHT22;42208;6.376;-10.782;2023-01-23T04:25:36;26.60;99.90
56298;DHT22;42208;6.376;-10.782;2023-01-23T04:28:11;26.60;99.90
56298;DHT22;42208;6.376;-10.782;2023-01-23T04:30:39;26.60;99.90
56298;DHT22;42208;6.376;-10.782;2023-01-23T04:33:16;26.50;99.90
56298;DHT22;42208;6.376;-10.782;2023-01-23T04:35:54;26.50;99.90
56298;DHT22;42208;6.376;-10.782;2023-01-23T04:38:26;26.50;99.90
56298;DHT22;42208;6.376;-10.782;2023-01-23T04:40:56;26.40;99.90
56298;DHT22;42208;6.376;-10.782;2023-01-23T04:43:24;26.40;99.90
56298;DHT22;42208;6.376;-10.782;2023-01-23T04:45:54;26.40;99.90
56298;DHT22;42208;6.376;-10.782;2023-01-23T04:48:41;26.40;99.90
56298;DHT22;42208;6.376;-10.782;2023-01-23T04:51:11;26.30;99.90
56298;DHT22;42208;6.376;-10.782;2023-01-23T04:53:40;26.30;99.90
56298;DHT22;42208;6.376;-10.782;2023-01-23T04:56:09;26.30;99.90
56298;DHT22;42208;6.376;-10.782;2023-01-23T04:58:38;26.30;99.90
56298;DHT22;42208;6.376;-10.782;2023-01-23T05:01:09;26.20;99.90
56298;DHT22;42208;6.376;-10.782;2023-01-23T05:03:37;26.20;99.90
56298;DHT22;42208;6.376;-10.782;2023-01-23T05:06:06;26.20;99.90
56298;DHT22;42208;6.376;-10.782;2023-01-23T05:08:34;26.20;99.90
56298;DHT22;42208;6.376;-10.782;2023-01-23T05:11:41;26.10;99.90
56298;DHT22;42208;6.376;-10.782;2023-01-23T05:14:11;26.10;99.90
56298;DHT22;42208;6.376;-10.782;2023-01-23T05:16:41;26.10;99.90
56298;DHT22;42208;6.376;-10.782;2023-01-23T05:19:32;26.10;99.90
56298;DHT22;42208;6.376;-10.782;2023-01-23T05:22:02;26.10;99.90
56298;DHT22;42208;6.376;-10.782;2023-01-23T05:24:31;26.00;99.90
56298;DHT22;42208;6.376;-10.782;2023-01-23T05:26:59;26.00;99.90
56298;DHT22;42208;6.376;-10.782;2023-01-23T05:29:30;25.90;99.90
56298;DHT22;42208;6.376;-10.782;2023-01-23T05:32:05;25.90;99.90
56298;DHT22;42208;6.376;-10.782;2023-01-23T05:34:37;25.90;99.90
56298;DHT22;42208;6.376;-10.782;2023-01-23T05:37:31;26.00;99.90
56298;DHT22;42208;6.376;-10.782;2023-01-23T05:40:04;25.90;99.90
56298;DHT22;42208;6.376;-10.782;2023-01-23T05:42:52;26.00;99.90
56298;DHT22;42208;6.376;-10.782;2023-01-23T05:45:46;25.90;99.90
56298;DHT22;42208;6.376;-10.782;2023-01-23T05:48:24;26.00;99.90
56298;DHT22;42208;6.376;-10.782;2023-01-23T05:50:53;25.90;99.90
56298;DHT22;42208;6.376;-10.782;2023-01-23T05:53:21;26.00;99.90
56298;DHT22;42208;6.376;-10.782;2023-01-23T05:55:49;26.00;99.90
56298;DHT22;42208;6.376;-10.782;2023-01-23T05:58:19;26.00;99.90
56298;DHT22;42208;6.376;-10.782;2023-01-23T06:01:22;25.90;99.90
56298;DHT22;42208;6.376;-10.782;2023-01-23T06:04:10;25.90;99.90
56298;DHT22;42208;6.376;-10.782;2023-01-23T06:06:52;25.90;99.90
56298;DHT22;42208;6.376;-10.782;2023-01-23T06:09:20;25.90;99.90
56298;DHT22;42208;6.376;-10.782;2023-01-23T06:11:49;25.90;99.90
56298;DHT22;42208;6.376;-10.782;2023-01-23T06:14:18;25.90;99.90
56298;DHT22;42208;6.376;-10.782;2023-01-23T06:16:46;25.90;99.90
56298;DHT22;42208;6.376;-10.782;2023-01-23T06:19:15;25.90;99.90
56298;DHT22;42208;6.376;-10.782;2023-01-23T06:21:43;25.90;99.90
56298;DHT22;42208;6.376;-10.782;2023-01-23T06:24:13;25.70;99.90
56298;DHT22;42208;6.376;-10.782;2023-01-23T06:26:41;25.70;99.90
56298;DHT22;42208;6.376;-10.782;2023-01-23T06:29:09;25.60;99.90
56298;DHT22;42208;6.376;-10.782;2023-01-23T06:31:38;25.70;99.90
56298;DHT22;42208;6.376;-10.782;2023-01-23T06:34:07;25.60;99.90
56298;DHT22;42208;6.376;-10.782;2023-01-23T06:36:43;25.60;99.90
56298;DHT22;42208;6.376;-10.782;2023-01-23T06:39:14;25.60;99.90
56298;DHT22;42208;6.376;-10.782;2023-01-23T06:41:43;25.60;99.90
56298;DHT22;42208;6.376;-10.782;2023-01-23T06:44:17;25.60;99.90
56298;DHT22;42208;6.376;-10.782;2023-01-23T06:46:45;25.60;99.90
56298;DHT22;42208;6.376;-10.782;2023-01-23T06:49:14;25.60;99.90
56298;DHT22;42208;6.376;-10.782;2023-01-23T06:51:43;25.60;99.90
56298;DHT22;42208;6.376;-10.782;2023-01-23T06:54:12;25.60;99.90
56298;DHT22;42208;6.376;-10.782;2023-01-23T06:56:40;25.60;99.90
56298;DHT22;42208;6.376;-10.782;2023-01-23T06:59:10;25.60;99.90
56298;DHT22;42208;6.376;-10.782;2023-01-23T07:01:40;25.60;99.90
56298;DHT22;42208;6.376;-10.782;2023-01-23T07:04:11;25.60;99.90
56298;DHT22;42208;6.376;-10.782;2023-01-23T07:06:41;25.50;99.90
56298;DHT22;42208;6.376;-10.782;2023-01-23T07:09:12;25.50;99.90
56298;DHT22;42208;6.376;-10.782;2023-01-23T07:11:45;25.50;99.90
56298;DHT22;42208;6.376;-10.782;2023-01-23T07:14:13;25.60;99.90
56298;DHT22;42208;6.376;-10.782;2023-01-23T07:16:45;25.60;99.90
56298;DHT22;42208;6.376;-10.782;2023-01-23T07:19:15;25.70;99.90
56298;DHT22;42208;6.376;-10.782;2023-01-23T07:21:46;25.70;99.90
56298;DHT22;42208;6.376;-10.782;2023-01-23T07:24:14;25.70;99.90
56298;DHT22;42208;6.376;-10.782;2023-01-23T07:26:44;25.80;99.90
56298;DHT22;42208;6.376;-10.782;2023-01-23T07:29:12;25.80;99.90
56298;DHT22;42208;6.376;-10.782;2023-01-23T07:31:40;25.80;99.90
56298;DHT22;42208;6.376;-10.782;2023-01-23T07:34:09;25.80;99.90
56298;DHT22;42208;6.376;-10.782;2023-01-23T07:36:37;25.90;99.90
56298;DHT22;42208;6.376;-10.782;2023-01-23T07:39:05;25.90;99.90
56298;DHT22;42208;6.376;-10.782;2023-01-23T07:41:33;25.90;99.90
56298;DHT22;42208;6.376;-10.782;2023-01-23T07:44:06;26.00;99.90
56298;DHT22;42208;6.376;-10.782;2023-01-23T07:46:35;26.00;99.90
56298;DHT22;42208;6.376;-10.782;2023-01-23T07:49:03;26.00;99.90
56298;DHT22;42208;6.376;-10.782;2023-01-23T07:51:33;26.10;99.90
56298;DHT22;42208;6.376;-10.782;2023-01-23T07:54:01;26.10;99.90
56298;DHT22;42208;6.376;-10.782;2023-01-23T07:56:30;26.10;99.90
56298;DHT22;42208;6.376;-10.782;2023-01-23T07:58:59;26.10;99.90
56298;DHT22;42208;6.376;-10.782;2023-01-23T08:01:27;26.10;99.90
56298;DHT22;42208;6.376;-10.782;2023-01-23T08:03:56;26.10;99.90
56298;DHT22;42208;6.376;-10.782;2023-01-23T08:06:24;26.10;99.90
56298;DHT22;42208;6.376;-10.782;2023-01-23T08:08:52;26.20;99.90
56298;DHT22;42208;6.376;-10.782;2023-01-23T08:11:20;26.20;99.90
56298;DHT22;42208;6.376;-10.782;2023-01-23T08:13:49;26.20;99.90
56298;DHT22;42208;6.376;-10.782;2023-01-23T08:16:17;26.30;99.90
56298;DHT22;42208;6.376;-10.782;2023-01-23T08:18:46;26.30;99.90
56298;DHT22;42208;6.376;-10.782;2023-01-23T08:21:14;26.40;99.90
56298;DHT22;42208;6.376;-10.782;2023-01-23T08:23:42;26.40;99.90
56298;DHT22;42208;6.376;-10.782;2023-01-23T08:26:13;26.40;99.90
56298;DHT22;42208;6.376;-10.782;2023-01-23T08:28:43;26.40;99.90
56298;DHT22;42208;6.376;-10.782;2023-01-23T08:31:12;26.40;99.90
56298;DHT22;42208;6.376;-10.782;2023-01-23T08:33:40;26.40;99.90
56298;DHT22;42208;6.376;-10.782;2023-01-23T08:36:11;26.50;99.90
56298;DHT22;42208;6.376;-10.782;2023-01-23T08:38:39;26.60;99.90
56298;DHT22;42208;6.376;-10.782;2023-01-23T08:41:08;26.70;99.90
56298;DHT22;42208;6.376;-10.782;2023-01-23T08:43:37;26.80;99.90
56298;DHT22;42208;6.376;-10.782;2023-01-23T08:46:06;26.90;99.90
56298;DHT22;42208;6.376;-10.782;2023-01-23T08:48:35;26.90;99.90
56298;DHT22;42208;6.376;-10.782;2023-01-23T08:51:08;26.90;99.90
56298;DHT22;42208;6.376;-10.782;2023-01-23T08:53:38;26.90;99.90
56298;DHT22;42208;6.376;-10.782;2023-01-23T08:56:10;27.00;99.90
56298;DHT22;42208;6.376;-10.782;2023-01-23T08:58:44;27.00;99.90
56298;DHT22;42208;6.376;-10.782;2023-01-23T09:01:17;27.10;99.90
56298;DHT22;42208;6.376;-10.782;2023-01-23T09:03:46;27.10;99.90
56298;DHT22;42208;6.376;-10.782;2023-01-23T09:06:17;27.10;99.90
56298;DHT22;42208;6.376;-10.782;2023-01-23T09:08:46;27.20;99.90
56298;DHT22;42208;6.376;-10.782;2023-01-23T09:11:15;27.20;99.90
56298;DHT22;42208;6.376;-10.782;2023-01-23T09:13:46;27.30;99.90
56298;DHT22;42208;6.376;-10.782;2023-01-23T09:16:15;27.30;99.90
56298;DHT22;42208;6.376;-10.782;2023-01-23T09:18:44;27.40;99.90
56298;DHT22;42208;6.376;-10.782;2023-01-23T09:21:14;27.40;99.90
56298;DHT22;42208;6.376;-10.782;2023-01-23T09:23:43;27.40;99.90
56298;DHT22;42208;6.376;-10.782;2023-01-23T09:26:12;27.50;99.90
56298;DHT22;42208;6.376;-10.782;2023-01-23T09:28:41;27.50;99.90
56298;DHT22;42208;6.376;-10.782;2023-01-23T09:31:11;27.50;99.90
56298;DHT22;42208;6.376;-10.782;2023-01-23T09:33:40;27.50;99.90
56298;DHT22;42208;6.376;-10.782;2023-01-23T09:36:09;27.70;99.90
56298;DHT22;42208;6.376;-10.782;2023-01-23T09:38:37;27.70;99.90
56298;DHT22;42208;6.376;-10.782;2023-01-23T09:41:26;27.70;99.90
56298;DHT22;42208;6.376;-10.782;2023-01-23T09:44:09;27.80;99.90
56298;DHT22;42208;6.376;-10.782;2023-01-23T09:46:55;27.90;99.90
56298;DHT22;42208;6.376;-10.782;2023-01-23T09:49:40;27.90;99.90
56298;DHT22;42208;6.376;-10.782;2023-01-23T09:52:19;28.00;99.90
56298;DHT22;42208;6.376;-10.782;2023-01-23T09:54:58;28.10;99.90
56298;DHT22;42208;6.376;-10.782;2023-01-23T09:57:41;28.10;99.90
56298;DHT22;42208;6.376;-10.782;2023-01-23T10:00:21;28.10;99.90
56298;DHT22;42208;6.376;-10.782;2023-01-23T10:02:51;28.10;99.90
56298;DHT22;42208;6.376;-10.782;2023-01-23T10:06:11;28.20;99.90
56298;DHT22;42208;6.376;-10.782;2023-01-23T10:10:58;28.40;99.90
56298;DHT22;42208;6.376;-10.782;2023-01-23T10:22:03;28.40;99.90
56298;DHT22;42208;6.376;-10.782;2023-01-23T10:24:52;28.60;99.90
56298;DHT22;42208;6.376;-10.782;2023-01-23T10:27:25;28.70;99.90
56298;DHT22;42208;6.376;-10.782;2023-01-23T10:30:25;28.70;99.90
56298;DHT22;42208;6.376;-10.782;2023-01-23T10:33:00;28.80;99.90
56298;DHT22;42208;6.376;-10.782;2023-01-23T10:35:55;28.70;99.90
56298;DHT22;42208;6.376;-10.782;2023-01-23T10:38:34;28.70;99.90
56298;DHT22;42208;6.376;-10.782;2023-01-23T10:41:12;28.80;99.90
56298;DHT22;42208;6.376;-10.782;2023-01-23T10:43:42;28.70;99.90
56298;DHT22;42208;6.376;-10.782;2023-01-23T10:46:13;28.70;99.90
56298;DHT22;42208;6.376;-10.782;2023-01-23T10:48:44;28.90;99.90
56298;DHT22;42208;6.376;-10.782;2023-01-23T10:54:20;28.80;99.90
56298;DHT22;42208;6.376;-10.782;2023-01-23T10:57:00;28.80;99.90
56298;DHT22;42208;6.376;-10.782;2023-01-23T11:04:45;29.10;99.90
56298;DHT22;42208;6.376;-10.782;2023-01-23T11:12:31;29.20;99.90
56298;DHT22;42208;6.376;-10.782;2023-01-23T11:15:22;29.20;99.90
56298;DHT22;42208;6.376;-10.782;2023-01-23T11:17:52;29.20;99.90
56298;DHT22;42208;6.376;-10.782;2023-01-23T11:20:29;29.30;99.90
56298;DHT22;42208;6.376;-10.782;2023-01-23T11:23:18;29.30;99.90
56298;DHT22;42208;6.376;-10.782;2023-01-23T11:25:51;29.40;99.90
56298;DHT22;42208;6.376;-10.782;2023-01-23T11:28:33;29.10;99.90
56298;DHT22;42208;6.376;-10.782;2023-01-23T11:31:05;29.10;99.90
56298;DHT22;42208;6.376;-10.782;2023-01-23T11:33:44;29.10;99.90
56298;DHT22;42208;6.376;-10.782;2023-01-23T11:38:51;29.40;99.90
56298;DHT22;42208;6.376;-10.782;2023-01-23T11:41:28;29.40;99.90
56298;DHT22;42208;6.376;-10.782;2023-01-23T11:43:57;29.60;99.90
56298;DHT22;42208;6.376;-10.782;2023-01-23T11:49:23;29.60;99.90
56298;DHT22;42208;6.376;-10.782;2023-01-23T11:54:48;29.40;99.90
56298;DHT22;42208;6.376;-10.782;2023-01-23T12:05:47;29.30;99.90
56298;DHT22;42208;6.376;-10.782;2023-01-23T12:10:58;29.30;99.90
56298;DHT22;42208;6.376;-10.782;2023-01-23T12:25:41;29.00;99.90
56298;DHT22;42208;6.376;-10.782;2023-01-23T12:37:25;29.60;99.90
56298;DHT22;42208;6.376;-10.782;2023-01-23T12:40:09;29.70;99.90
56298;DHT22;42208;6.376;-10.782;2023-01-23T12:42:56;29.70;99.90
56298;DHT22;42208;6.376;-10.782;2023-01-23T12:45:28;29.70;99.90
56298;DHT22;42208;6.376;-10.782;2023-01-23T12:48:17;29.50;99.90
56298;DHT22;42208;6.376;-10.782;2023-01-23T12:53:59;29.60;99.90
56298;DHT22;42208;6.376;-10.782;2023-01-23T12:56:33;29.60;99.90
56298;DHT22;42208;6.376;-10.782;2023-01-23T12:59:07;29.50;99.90
56298;DHT22;42208;6.376;-10.782;2023-01-23T13:02:03;29.70;99.90
56298;DHT22;42208;6.376;-10.782;2023-01-23T13:04:52;29.70;99.90
56298;DHT22;42208;6.376;-10.782;2023-01-23T13:07:53;29.80;99.90
56298;DHT22;42208;6.376;-10.782;2023-01-23T13:10:28;30.00;99.90
56298;DHT22;42208;6.376;-10.782;2023-01-23T13:12:59;29.90;99.90
56298;DHT22;42208;6.376;-10.782;2023-01-23T13:15:32;29.80;99.90
56298;DHT22;42208;6.376;-10.782;2023-01-23T13:18:24;29.90;99.90
56298;DHT22;42208;6.376;-10.782;2023-01-23T13:20:58;30.00;99.90
56298;DHT22;42208;6.376;-10.782;2023-01-23T13:23:32;30.20;99.90
56298;DHT22;42208;6.376;-10.782;2023-01-23T13:28:52;30.20;99.90
56298;DHT22;42208;6.376;-10.782;2023-01-23T13:33:54;30.50;99.90
56298;DHT22;42208;6.376;-10.782;2023-01-23T13:36:36;30.40;99.90
56298;DHT22;42208;6.376;-10.782;2023-01-23T13:41:43;30.30;99.90
56298;DHT22;42208;6.376;-10.782;2023-01-23T13:44:26;29.80;99.90
56298;DHT22;42208;6.376;-10.782;2023-01-23T13:50:10;30.00;99.90
56298;DHT22;42208;6.376;-10.782;2023-01-23T13:52:52;30.20;99.90
56298;DHT22;42208;6.376;-10.782;2023-01-23T13:55:41;30.30;99.90
56298;DHT22;42208;6.376;-10.782;2023-01-23T13:58:26;30.30;99.90
56298;DHT22;42208;6.376;-10.782;2023-01-23T14:01:14;30.50;99.90
56298;DHT22;42208;6.376;-10.782;2023-01-23T14:04:06;30.40;99.90
56298;DHT22;42208;6.376;-10.782;2023-01-23T14:06:55;30.10;99.90
56298;DHT22;42208;6.376;-10.782;2023-01-23T14:09:41;29.80;99.90
56298;DHT22;42208;6.376;-10.782;2023-01-23T14:12:28;30.00;99.90
56298;DHT22;42208;6.376;-10.782;2023-01-23T14:15:23;30.10;99.90
56298;DHT22;42208;6.376;-10.782;2023-01-23T14:18:16;30.20;99.90
56298;DHT22;42208;6.376;-10.782;2023-01-23T14:21:21;30.20;99.90
56298;DHT22;42208;6.376;-10.782;2023-01-23T14:24:01;29.80;99.90
56298;DHT22;42208;6.376;-10.782;2023-01-23T14:26:31;30.00;99.90
56298;DHT22;42208;6.376;-10.782;2023-01-23T14:29:02;30.20;99.90
56298;DHT22;42208;6.376;-10.782;2023-01-23T14:31:33;30.20;99.90
56298;DHT22;42208;6.376;-10.782;2023-01-23T14:34:13;30.30;99.90
56298;DHT22;42208;6.376;-10.782;2023-01-23T14:36:48;30.20;99.90
56298;DHT22;42208;6.376;-10.782;2023-01-23T14:39:24;30.00;99.90
56298;DHT22;42208;6.376;-10.782;2023-01-23T14:41:55;30.30;99.90
56298;DHT22;42208;6.376;-10.782;2023-01-23T14:44:41;30.10;99.90
56298;DHT22;42208;6.376;-10.782;2023-01-23T14:49:48;30.20;99.90
56298;DHT22;42208;6.376;-10.782;2023-01-23T14:52:25;29.90;99.90
56298;DHT22;42208;6.376;-10.782;2023-01-23T14:54:55;29.90;99.90
56298;DHT22;42208;6.376;-10.782;2023-01-23T14:57:27;30.10;99.90
56298;DHT22;42208;6.376;-10.782;2023-01-23T14:59:57;30.10;99.90
56298;DHT22;42208;6.376;-10.782;2023-01-23T15:02:32;30.00;99.90
56298;DHT22;42208;6.376;-10.782;2023-01-23T15:05:09;30.10;99.90
56298;DHT22;42208;6.376;-10.782;2023-01-23T15:13:01;30.10;99.90
56298;DHT22;42208;6.376;-10.782;2023-01-23T15:15:32;30.60;99.90
56298;DHT22;42208;6.376;-10.782;2023-01-23T15:18:04;30.50;99.90
56298;DHT22;42208;6.376;-10.782;2023-01-23T15:20:37;30.60;99.90
56298;DHT22;42208;6.376;-10.782;2023-01-23T15:23:29;30.70;99.90
56298;DHT22;42208;6.376;-10.782;2023-01-23T15:26:24;30.90;99.90
56298;DHT22;42208;6.376;-10.782;2023-01-23T15:29:00;30.80;99.90
56298;DHT22;42208;6.376;-10.782;2023-01-23T15:31:29;31.10;99.90
56298;DHT22;42208;6.376;-10.782;2023-01-23T15:39:34;31.00;99.90
56298;DHT22;42208;6.376;-10.782;2023-01-23T15:42:26;30.90;99.90
56298;DHT22;42208;6.376;-10.782;2023-01-23T15:44:55;31.20;99.90
56298;DHT22;42208;6.376;-10.782;2023-01-23T15:47:23;31.50;99.90
56298;DHT22;42208;6.376;-10.782;2023-01-23T15:49:51;31.40;99.90
56298;DHT22;42208;6.376;-10.782;2023-01-23T15:52:23;31.20;99.90
56298;DHT22;42208;6.376;-10.782;2023-01-23T15:54:57;31.30;99.90
56298;DHT22;42208;6.376;-10.782;2023-01-23T15:57:27;31.70;99.90
56298;DHT22;42208;6.376;-10.782;2023-01-23T15:59:55;31.90;99.90
56298;DHT22;42208;6.376;-10.782;2023-01-23T16:02:23;32.00;99.90
56298;DHT22;42208;6.376;-10.782;2023-01-23T16:04:58;31.60;99.90
56298;DHT22;42208;6.376;-10.782;2023-01-23T16:07:31;31.60;99.90
56298;DHT22;42208;6.376;-10.782;2023-01-23T16:10:03;31.40;99.90
56298;DHT22;42208;6.376;-10.782;2023-01-23T16:12:33;31.60;99.90
56298;DHT22;42208;6.376;-10.782;2023-01-23T16:15:01;31.30;99.90
56298;DHT22;42208;6.376;-10.782;2023-01-23T16:17:29;31.10;99.90
56298;DHT22;42208;6.376;-10.782;2023-01-23T16:19:57;31.20;99.90
56298;DHT22;42208;6.376;-10.782;2023-01-23T16:22:27;31.20;99.90
56298;DHT22;42208;6.376;-10.782;2023-01-23T16:24:56;31.20;99.90
56298;DHT22;42208;6.376;-10.782;2023-01-23T16:27:25;31.30;99.90
56298;DHT22;42208;6.376;-10.782;2023-01-23T16:29:55;31.40;99.90
56298;DHT22;42208;6.376;-10.782;2023-01-23T16:32:23;31.50;99.90
56298;DHT22;42208;6.376;-10.782;2023-01-23T16:34:52;31.60;99.90
56298;DHT22;42208;6.376;-10.782;2023-01-23T16:37:23;31.50;99.90
56298;DHT22;42208;6.376;-10.782;2023-01-23T16:39:51;31.40;99.90
56298;DHT22;42208;6.376;-10.782;2023-01-23T16:42:22;31.30;99.90
56298;DHT22;42208;6.376;-10.782;2023-01-23T16:44:52;31.20;99.90
56298;DHT22;42208;6.376;-10.782;2023-01-23T16:47:21;31.10;99.90
56298;DHT22;42208;6.376;-10.782;2023-01-23T16:49:49;30.70;99.90
56298;DHT22;42208;6.376;-10.782;2023-01-23T16:52:21;30.30;99.90
56298;DHT22;42208;6.376;-10.782;2023-01-23T16:54:51;30.20;99.90
56298;DHT22;42208;6.376;-10.782;2023-01-23T16:57:21;29.80;99.90
56298;DHT22;42208;6.376;-10.782;2023-01-23T16:59:50;29.80;99.90
56298;DHT22;42208;6.376;-10.782;2023-01-23T17:02:25;29.70;99.90
56298;DHT22;42208;6.376;-10.782;2023-01-23T17:04:54;30.00;99.90
56298;DHT22;42208;6.376;-10.782;2023-01-23T17:07:22;30.20;99.90
56298;DHT22;42208;6.376;-10.782;2023-01-23T17:09:51;30.40;99.90
56298;DHT22;42208;6.376;-10.782;2023-01-23T17:12:22;30.20;99.90
56298;DHT22;42208;6.376;-10.782;2023-01-23T17:14:52;29.90;99.90
56298;DHT22;42208;6.376;-10.782;2023-01-23T17:17:30;29.90;99.90
56298;DHT22;42208;6.376;-10.782;2023-01-23T17:19:59;29.80;99.90
56298;DHT22;42208;6.376;-10.782;2023-01-23T17:22:32;29.60;99.90
56298;DHT22;42208;6.376;-10.782;2023-01-23T17:25:02;29.50;99.90
56298;DHT22;42208;6.376;-10.782;2023-01-23T17:27:30;29.40;99.90
56298;DHT22;42208;6.376;-10.782;2023-01-23T17:30:18;29.20;99.90
56298;DHT22;42208;6.376;-10.782;2023-01-23T17:32:53;29.10;99.90
56298;DHT22;42208;6.376;-10.782;2023-01-23T17:35:24;29.00;99.90